West Clarksville, New York
Current Conditions -  °F | °C
As of 5:55 PM on Saturday 25 Oct 2014 (Local Time) from KOLE Reporting Station
Scattered Clouds Scattered Clouds  
Wind Chill: 54°   Ceiling: Unl
Heat Index: 54°   Visibility: 10mi
Dew Point: 52°   Wind: 13mph
Humidity: 94%   Direction: 270°W
Pressure: 29.66"   Gusts: 26mph
Location:  42.13°N, 78.24°W
Report Text: KOLE 252155Z AUTO 27011G23KT 230V300 10SM SCT021 12/11 A2966 RMK AO2 LTG DSNT N
Loading
Personal Weather Stations






























Interactive Weather Map
Tropical Storm Tracking
New forecast layout! Learn more

10-Day Weather Forecast

Advertisements
Track Severe Weather on mobile